CYEV

Inuvik Mike Zubko Airport

Inuvik, Northwest Territories, Canada
METAR CYEV 110200Z 30003KT 10SM IC SCT230 M26/M29 A2945 RMK CI4 SLP984
Observed Flight Rules
Dec-11 @ 02:00 UTC (25 minutes ago) Visual Flight Rules
Wind Visibility Clouds Conditions
300° at 3 knots 10 miles
  • Scattered at 23,000' AGL
  • Ice crystals
Temperatures Readings
Current -26°C / -15°F
Dewpoint -29°C / -20°F
Humidity 76%
Altimeter 29.45" Hg
Pressure 998.4 hPa
Elevation 68
METAR CYEV 110200Z 30003KT 10SM IC SCT230 M26/M29 A2945 RMK CI4 SLP984
Observed Flight Rules
Dec-11 @ 02:00 UTC
(25 minutes ago)
VFR
Wind Visibility
300° at 3 knots 10 miles
Clouds
  • Scattered at 23,000' AGL
Conditions
  • Ice crystals
Temperature Dewpoint
-26°C / -15°F -29°C / -20°F
Humidity Altimeter Pressure
76% 29.45" Hg 998.4 hPa